createdAt,value
2018-02-23T00:00:13.836Z,48.13
2018-02-23T00:02:42.206Z,48.63
2018-02-23T00:05:10.459Z,47.17
2018-02-23T00:07:46.933Z,44.47
2018-02-23T00:10:15.346Z,47.40
2018-02-23T00:12:43.591Z,56.37
2018-02-23T00:15:11.058Z,48.70
2018-02-23T00:17:39.335Z,53.00
2018-02-23T00:20:06.802Z,55.43
2018-02-23T00:22:40.945Z,50.60
2018-02-23T00:25:08.436Z,52.40
2018-02-23T00:27:36.883Z,51.63
2018-02-23T00:30:04.363Z,57.07
2018-02-23T00:32:31.855Z,48.97
2018-02-23T00:35:00.082Z,53.97
2018-02-23T00:37:27.567Z,55.73
2018-02-23T00:39:55.038Z,53.60
2018-02-23T00:42:23.284Z,51.23
2018-02-23T00:44:50.758Z,54.13
2018-02-23T00:47:18.230Z,49.47
2018-02-23T00:49:45.706Z,52.47
2018-02-23T00:52:13.957Z,52.57
2018-02-23T00:54:41.414Z,58.73
2018-02-23T00:57:08.889Z,54.10
2018-02-23T00:59:37.134Z,52.43
2018-02-23T01:02:04.602Z,52.27
2018-02-23T01:04:32.083Z,57.97
2018-02-23T01:06:59.586Z,53.40
2018-02-23T01:09:27.060Z,62.80
2018-02-23T01:11:54.555Z,55.87
2018-02-23T01:14:22.056Z,53.97
2018-02-23T01:16:49.530Z,56.00
2018-02-23T01:19:17.017Z,50.87
2018-02-23T01:21:45.276Z,55.37
2018-02-23T01:24:12.758Z,54.50
2018-02-23T01:26:40.278Z,55.13
2018-02-23T01:29:08.535Z,61.37
2018-02-23T01:31:36.163Z,61.43
2018-02-23T01:34:03.666Z,55.97
2018-02-23T01:36:31.158Z,71.67
2018-02-23T01:38:59.398Z,64.83
2018-02-23T01:41:26.925Z,62.87
2018-02-23T01:43:55.155Z,60.03
2018-02-23T01:46:22.631Z,61.43
2018-02-23T01:48:50.147Z,70.77
2018-02-23T01:51:17.618Z,57.10
2018-02-23T01:53:45.098Z,61.87
2018-02-23T01:56:12.702Z,65.13
2018-02-23T01:58:40.263Z,58.20
2018-02-23T02:01:07.751Z,62.53
2018-02-23T02:03:35.254Z,69.47
2018-02-23T02:06:02.747Z,72.67
2018-02-23T02:08:30.225Z,56.33
2018-02-23T02:10:57.698Z,62.53
2018-02-23T02:13:25.942Z,61.50
2018-02-23T02:15:53.425Z,67.50
2018-02-23T02:18:20.925Z,66.57
2018-02-23T02:20:48.407Z,60.20
2018-02-23T02:23:16.811Z,63.20
2018-02-23T02:25:44.295Z,65.50
2018-02-23T02:28:11.760Z,62.40
2018-02-23T02:30:39.244Z,70.00
2018-02-23T02:33:06.746Z,62.53
2018-02-23T02:35:34.209Z,59.93
2018-02-23T02:38:02.461Z,64.93
2018-02-23T02:40:29.949Z,62.30
2018-02-23T02:42:58.238Z,64.33
2018-02-23T02:45:25.674Z,69.40
2018-02-23T02:47:53.947Z,59.93
2018-02-23T02:50:22.210Z,65.80
2018-02-23T02:52:49.700Z,71.93
2018-02-23T02:55:17.171Z,66.17
2018-02-23T02:57:44.654Z,73.30
2018-02-23T03:00:12.132Z,61.10
2018-02-23T03:02:39.600Z,58.63
2018-02-23T03:05:07.066Z,71.17
2018-02-23T03:07:35.306Z,71.27
2018-02-23T03:10:02.773Z,75.43
2018-02-23T03:12:30.256Z,76.37
2018-02-23T03:14:58.492Z,60.77
2018-02-23T03:17:25.954Z,64.63
2018-02-23T03:19:53.440Z,66.63
2018-02-23T03:22:21.704Z,77.70
2018-02-23T03:24:49.182Z,60.03
2018-02-23T03:27:17.434Z,60.87
2018-02-23T03:29:44.899Z,68.23
2018-02-23T03:32:12.388Z,63.20
2018-02-23T03:34:39.891Z,67.27
2018-02-23T03:37:07.363Z,61.92
2018-02-23T03:39:34.840Z,71.82
2018-02-23T03:42:03.119Z,76.05
2018-02-23T03:44:30.617Z,73.53
2018-02-23T03:46:58.086Z,62.70
2018-02-23T03:49:25.571Z,65.57
2018-02-23T03:51:53.039Z,59.03
2018-02-23T03:54:21.309Z,69.75
2018-02-23T03:56:48.788Z,77.82
2018-02-23T03:59:16.299Z,71.43
2018-02-23T04:01:44.675Z,67.32
2018-02-23T04:04:12.186Z,72.30
2018-02-23T04:06:39.694Z,68.37
2018-02-23T04:09:07.172Z,66.97
2018-02-23T04:11:35.450Z,79.87
2018-02-23T04:14:03.699Z,70.90
2018-02-23T04:16:32.689Z,78.12
2018-02-23T04:19:00.165Z,64.18
2018-02-23T04:21:27.638Z,85.07
2018-02-23T04:23:55.909Z,79.33
2018-02-23T04:26:24.203Z,74.62
2018-02-23T04:28:51.670Z,77.68
2018-02-23T04:31:19.158Z,73.72
2018-02-23T04:33:47.347Z,79.28
2018-02-23T04:36:14.820Z,71.60
2018-02-23T04:38:42.299Z,75.77
2018-02-23T04:41:10.546Z,77.55
2018-02-23T04:43:38.014Z,85.53
2018-02-23T04:46:06.270Z,75.40
2018-02-23T04:48:34.651Z,91.90
2018-02-23T04:51:02.130Z,79.30
2018-02-23T04:53:30.367Z,78.43
2018-02-23T04:55:57.875Z,84.30
2018-02-23T04:58:26.127Z,82.07
2018-02-23T05:00:54.442Z,84.32
2018-02-23T05:03:21.922Z,77.45
2018-02-23T05:05:49.402Z,75.32
2018-02-23T05:08:17.768Z,80.82
2018-02-23T05:10:45.278Z,86.68
2018-02-23T05:13:14.298Z,79.22
2018-02-23T05:15:41.765Z,79.07
2018-02-23T05:18:09.262Z,80.53
2018-02-23T05:20:37.543Z,76.37
2018-02-23T05:23:05.022Z,78.80
2018-02-23T05:25:32.589Z,91.05
2018-02-23T05:28:00.066Z,86.43
2018-02-23T05:30:27.623Z,77.87
2018-02-23T05:32:55.115Z,86.32
2018-02-23T05:35:23.269Z,94.15
2018-02-23T05:37:50.744Z,75.78
2018-02-23T05:40:18.250Z,80.75
2018-02-23T05:42:45.731Z,79.68
2018-02-23T05:45:13.214Z,101.53
2018-02-23T05:47:40.694Z,93.32
2018-02-23T05:50:08.945Z,81.70
2018-02-23T05:52:36.460Z,94.30
2018-02-23T05:55:03.949Z,79.78
2018-02-23T05:57:31.443Z,90.33
2018-02-23T05:59:59.714Z,118.18
2018-02-23T06:02:27.444Z,90.10
2018-02-23T06:04:54.910Z,88.85
2018-02-23T06:07:22.390Z,107.15
2018-02-23T06:09:50.643Z,89.70
2018-02-23T06:12:18.116Z,78.20
2018-02-23T06:14:45.595Z,102.90
2018-02-23T06:17:20.315Z,87.20
2018-02-23T06:19:54.304Z,87.88
2018-02-23T06:22:21.802Z,101.43
2018-02-23T06:24:49.273Z,100.93
2018-02-23T06:27:16.752Z,88.40
2018-02-23T06:29:44.239Z,98.28
2018-02-23T06:32:11.723Z,94.13
2018-02-23T06:34:39.232Z,97.75
2018-02-23T06:37:06.724Z,103.07
2018-02-23T06:39:34.990Z,93.10
2018-02-23T06:42:02.454Z,83.78
2018-02-23T06:44:30.705Z,105.43
2018-02-23T06:47:03.807Z,110.57
2018-02-23T06:49:31.297Z,91.85
2018-02-23T06:51:58.763Z,104.43
2018-02-23T06:54:27.007Z,97.55
2018-02-23T06:56:55.263Z,87.72
2018-02-23T06:59:22.739Z,97.65
2018-02-23T07:01:50.970Z,97.88
2018-02-23T07:04:18.451Z,84.70
2018-02-23T07:06:45.923Z,91.97
2018-02-23T07:09:14.187Z,94.20
2018-02-23T07:11:41.674Z,84.80
2018-02-23T07:14:10.459Z,86.18
2018-02-23T07:16:38.767Z,94.78
2018-02-23T07:19:06.242Z,85.30
2018-02-23T07:21:33.726Z,102.35
2018-02-23T07:24:01.208Z,91.87
2018-02-23T07:26:29.450Z,82.78
2018-02-23T07:28:56.933Z,95.05
2018-02-23T07:31:25.177Z,93.95
2018-02-23T07:33:53.171Z,95.78
2018-02-23T07:36:21.436Z,104.28
2018-02-23T07:38:48.918Z,95.90
2018-02-23T07:41:16.527Z,90.62
2018-02-23T07:43:44.001Z,94.43
2018-02-23T07:46:11.476Z,96.33
2018-02-23T07:48:39.734Z,95.10
2018-02-23T07:51:07.217Z,101.20
2018-02-23T07:53:35.542Z,102.63
2018-02-23T07:56:03.042Z,81.80
2018-02-23T07:58:31.299Z,81.10
2018-02-23T08:00:58.772Z,86.33
2018-02-23T08:03:26.249Z,81.93
2018-02-23T08:05:53.737Z,79.50
2018-02-23T08:08:21.215Z,78.00
2018-02-23T08:10:48.686Z,80.70
2018-02-23T08:13:16.159Z,79.10
2018-02-23T08:15:43.627Z,87.77
2018-02-23T08:18:11.870Z,79.73
2018-02-23T08:20:40.255Z,82.80
2018-02-23T08:23:08.380Z,84.40
2018-02-23T08:25:35.889Z,81.77
2018-02-23T08:28:03.360Z,72.90
2018-02-23T08:30:31.599Z,81.67
2018-02-23T08:32:59.087Z,71.90
2018-02-23T08:35:26.599Z,78.70
2018-02-23T08:37:54.154Z,76.27
2018-02-23T08:40:21.658Z,64.73
2018-02-23T08:42:49.931Z,70.97
2018-02-23T08:45:17.413Z,62.37
2018-02-23T08:47:46.291Z,62.00
2018-02-23T08:50:13.760Z,70.30
2018-02-23T08:52:41.999Z,64.03
2018-02-23T08:55:09.530Z,69.57
2018-02-23T08:57:36.993Z,63.43
2018-02-23T09:00:04.464Z,60.90
2018-02-23T09:02:31.963Z,55.57
2018-02-23T09:05:00.190Z,66.90
2018-02-23T09:07:27.711Z,59.57
2018-02-23T09:09:55.216Z,53.27
2018-02-23T09:12:22.684Z,62.67
2018-02-23T09:14:50.203Z,58.43
2018-02-23T09:17:17.666Z,55.90
2018-02-23T09:19:45.146Z,52.40
2018-02-23T09:22:12.668Z,55.63
2018-02-23T09:24:40.192Z,55.13
2018-02-23T09:27:08.426Z,50.23
2018-02-23T09:29:35.931Z,51.93
2018-02-23T09:32:04.188Z,46.20
2018-02-23T09:34:37.660Z,43.10
2018-02-23T09:37:05.166Z,53.53
2018-02-23T09:39:33.396Z,43.97
2018-02-23T09:42:00.851Z,45.23
2018-02-23T09:44:28.338Z,46.23
2018-02-23T09:46:56.582Z,49.13
2018-02-23T09:49:24.055Z,40.90
2018-02-23T09:51:51.529Z,43.57
2018-02-23T09:54:19.847Z,38.53
2018-02-23T09:56:47.306Z,35.40
2018-02-23T09:59:14.783Z,39.33
2018-02-23T10:01:42.302Z,39.93
2018-02-23T10:04:09.769Z,35.73
2018-02-23T10:06:37.239Z,34.87
2018-02-23T10:09:04.713Z,34.03
2018-02-23T10:11:32.207Z,32.27
2018-02-23T10:14:00.906Z,29.00
2018-02-23T10:16:28.443Z,26.20
2018-02-23T10:18:56.686Z,26.40
2018-02-23T10:21:24.182Z,26.13
2018-02-23T10:23:52.418Z,27.40
2018-02-23T10:26:19.877Z,23.70
2018-02-23T10:28:47.355Z,23.53
2018-02-23T10:31:15.154Z,27.43
2018-02-23T10:33:42.619Z,21.60
2018-02-23T10:36:10.099Z,20.60
2018-02-23T10:38:37.609Z,29.13
2018-02-23T10:41:05.843Z,26.20
2018-02-23T10:43:33.358Z,26.87
2018-02-23T10:46:01.595Z,26.37
2018-02-23T10:48:29.581Z,23.20
2018-02-23T10:50:58.066Z,24.43
2018-02-23T10:53:25.512Z,22.00
2018-02-23T10:55:53.009Z,23.70
2018-02-23T10:58:20.494Z,21.27
2018-02-23T11:00:47.992Z,21.27
2018-02-23T11:03:15.543Z,19.53
2018-02-23T11:05:44.687Z,19.00
2018-02-23T11:08:12.167Z,15.27
2018-02-23T11:10:39.848Z,15.60
2018-02-23T11:13:07.324Z,18.13
2018-02-23T11:15:37.409Z,17.10
2018-02-23T11:18:04.892Z,17.90
2018-02-23T11:20:33.129Z,17.23
2018-02-23T11:23:00.592Z,17.63
2018-02-23T11:25:28.057Z,16.07
2018-02-23T11:27:55.539Z,15.50
2018-02-23T11:30:24.513Z,19.50
2018-02-23T11:32:51.993Z,15.93
2018-02-23T11:35:19.555Z,16.63
2018-02-23T11:37:47.795Z,17.40
2018-02-23T11:40:15.272Z,17.70
2018-02-23T11:42:43.503Z,15.33
2018-02-23T11:45:10.967Z,16.27
2018-02-23T11:47:38.434Z,16.33
2018-02-23T11:50:05.914Z,16.30
2018-02-23T11:52:33.387Z,14.57
2018-02-23T11:55:01.607Z,19.47
2018-02-23T11:57:34.814Z,16.27
2018-02-23T12:00:02.279Z,17.07
2018-02-23T12:02:29.850Z,18.13
2018-02-23T12:04:58.838Z,19.50
2018-02-23T12:07:26.318Z,15.80
2018-02-23T12:09:54.538Z,14.40
2018-02-23T12:12:22.075Z,21.57
2018-02-23T12:14:50.299Z,17.60
2018-02-23T12:17:17.771Z,20.90
2018-02-23T12:19:46.016Z,18.90
2018-02-23T12:22:13.512Z,16.93
2018-02-23T12:24:41.752Z,21.90
2018-02-23T12:27:09.219Z,17.87
2018-02-23T12:29:36.694Z,18.00
2018-02-23T12:32:04.143Z,15.20
2018-02-23T12:34:31.633Z,19.60
2018-02-23T12:36:59.094Z,19.67
2018-02-23T12:39:27.329Z,28.43
2018-02-23T12:41:54.913Z,20.83
2018-02-23T12:44:22.390Z,17.53
2018-02-23T12:46:49.910Z,21.77
2018-02-23T12:49:18.147Z,22.40
2018-02-23T12:51:45.614Z,20.20
2018-02-23T12:54:13.081Z,22.20
2018-02-23T12:56:40.694Z,25.30
2018-02-23T12:59:08.233Z,19.67
2018-02-23T13:01:36.478Z,22.27
2018-02-23T13:04:04.055Z,21.90
2018-02-23T13:06:31.517Z,23.70
2018-02-23T13:08:59.743Z,23.60
2018-02-23T13:11:27.222Z,18.77
2018-02-23T13:13:56.622Z,19.90
2018-02-23T13:16:29.689Z,22.03
2018-02-23T13:18:57.154Z,22.87
2018-02-23T13:21:24.632Z,20.20
2018-02-23T13:23:52.215Z,22.80
2018-02-23T13:26:19.659Z,17.20
2018-02-23T13:28:47.129Z,27.00
2018-02-23T13:31:14.594Z,19.27
2018-02-23T13:33:42.825Z,18.07
2018-02-23T13:36:10.284Z,20.00
2018-02-23T13:38:37.768Z,17.40
2018-02-23T13:41:10.948Z,21.40
2018-02-23T13:43:38.426Z,17.77
2018-02-23T13:46:06.646Z,23.50
2018-02-23T13:48:34.106Z,22.80
2018-02-23T13:51:01.591Z,21.60
2018-02-23T13:53:34.683Z,18.10
2018-02-23T13:56:02.194Z,21.47
2018-02-23T13:58:29.655Z,21.40
2018-02-23T14:00:57.144Z,19.17
2018-02-23T14:03:24.609Z,18.53
2018-02-23T14:05:52.075Z,20.97
2018-02-23T14:08:19.535Z,18.67
2018-02-23T14:10:47.011Z,19.93
2018-02-23T14:13:14.483Z,19.67
2018-02-23T14:15:41.947Z,18.17
2018-02-23T14:18:10.360Z,19.50
2018-02-23T14:20:37.819Z,21.00
2018-02-23T14:23:05.316Z,19.20
2018-02-23T14:25:34.306Z,17.27
2018-02-23T14:28:02.531Z,15.50
2018-02-23T14:30:29.996Z,18.63
2018-02-23T14:32:58.097Z,16.80
2018-02-23T14:35:25.557Z,14.20
2018-02-23T14:37:53.191Z,16.37
2018-02-23T14:40:20.691Z,19.53
2018-02-23T14:42:48.948Z,18.67
2018-02-23T14:45:17.214Z,17.90
2018-02-23T14:47:44.687Z,15.73
2018-02-23T14:50:36.680Z,15.83
2018-02-23T14:53:04.243Z,13.70
2018-02-23T14:55:31.706Z,13.10
2018-02-23T14:57:59.225Z,15.00
2018-02-23T15:00:26.782Z,13.60
2018-02-23T15:02:55.022Z,12.77
2018-02-23T15:05:22.467Z,13.43
2018-02-23T15:07:49.997Z,15.47
2018-02-23T15:10:17.439Z,12.40
2018-02-23T15:12:44.914Z,13.80
2018-02-23T15:15:12.391Z,14.23
2018-02-23T15:17:39.859Z,11.10
2018-02-23T15:20:07.305Z,15.10
2018-02-23T15:22:34.813Z,13.20
2018-02-23T15:25:02.271Z,11.50
2018-02-23T15:27:29.731Z,12.23
2018-02-23T15:29:57.213Z,14.23
2018-02-23T15:32:29.750Z,12.20
2018-02-23T15:34:57.234Z,13.63
2018-02-23T15:37:24.694Z,10.77
2018-02-23T15:39:52.163Z,14.43
2018-02-23T15:42:19.705Z,10.47
2018-02-23T15:44:47.235Z,12.50
2018-02-23T15:47:15.092Z,9.43
2018-02-23T15:49:53.226Z,8.67
2018-02-23T15:52:20.730Z,11.70
2018-02-23T15:54:49.834Z,12.83
2018-02-23T15:57:32.983Z,9.80
2018-02-23T16:00:00.453Z,11.00
2018-02-23T16:02:27.934Z,11.03
2018-02-23T16:04:56.495Z,9.93
2018-02-23T16:07:23.954Z,8.83
2018-02-23T16:09:51.427Z,12.03
2018-02-23T16:12:18.907Z,13.33
2018-02-23T16:14:46.374Z,9.77
2018-02-23T16:17:14.645Z,9.30
2018-02-23T16:19:42.116Z,12.30
2018-02-23T16:22:10.375Z,11.93
2018-02-23T16:24:37.989Z,11.50
2018-02-23T16:27:06.510Z,8.97
2018-02-23T16:29:33.988Z,13.07
2018-02-23T16:32:02.232Z,11.80
2018-02-23T16:34:29.806Z,12.40
2018-02-23T16:36:57.271Z,13.63
2018-02-23T16:39:25.535Z,12.83
2018-02-23T16:41:53.028Z,13.33
2018-02-23T16:44:20.566Z,11.20
2018-02-23T16:46:48.399Z,12.40
2018-02-23T16:49:15.876Z,11.17
2018-02-23T16:51:43.363Z,12.70
2018-02-23T16:54:11.599Z,13.53
2018-02-23T16:56:39.074Z,12.33
2018-02-23T16:59:07.314Z,11.33
2018-02-23T17:01:34.795Z,12.43
2018-02-23T17:04:02.358Z,14.97
2018-02-23T17:06:29.872Z,12.90
2018-02-23T17:08:57.348Z,12.20
2018-02-23T17:11:24.820Z,15.20
2018-02-23T17:13:52.306Z,14.93
2018-02-23T17:16:20.543Z,13.90
2018-02-23T17:18:48.044Z,14.57
2018-02-23T17:21:15.559Z,19.33
2018-02-23T17:23:43.039Z,11.50
2018-02-23T17:26:10.583Z,11.37
2018-02-23T17:28:38.059Z,10.83
2018-02-23T17:31:05.530Z,13.90
2018-02-23T17:33:33.813Z,11.50
2018-02-23T17:36:01.269Z,18.03
2018-02-23T17:38:29.515Z,12.23
2018-02-23T17:40:56.992Z,12.47
2018-02-23T17:43:24.476Z,10.47
2018-02-23T17:45:51.969Z,12.17
2018-02-23T17:48:19.438Z,10.20
2018-02-23T17:50:46.931Z,13.40
2018-02-23T17:53:14.398Z,10.20
2018-02-23T17:55:41.866Z,11.97
2018-02-23T17:58:09.426Z,15.07
2018-02-23T18:00:37.706Z,10.07
2018-02-23T18:03:05.179Z,12.13
2018-02-23T18:05:32.699Z,10.63
2018-02-23T18:08:00.187Z,10.43
2018-02-23T18:10:27.663Z,13.23
2018-02-23T18:12:55.131Z,12.10
2018-02-23T18:15:22.598Z,13.07
2018-02-23T18:17:50.083Z,11.30
2018-02-23T18:20:17.620Z,12.70
2018-02-23T18:22:45.863Z,11.70
2018-02-23T18:25:13.327Z,12.90
2018-02-23T18:27:40.826Z,13.50
2018-02-23T18:30:09.080Z,11.57
2018-02-23T18:32:36.576Z,9.87
2018-02-23T18:35:04.080Z,10.40
2018-02-23T18:37:31.563Z,8.70
2018-02-23T18:39:59.819Z,8.80
2018-02-23T18:42:27.299Z,11.83
2018-02-23T18:44:54.799Z,11.73
2018-02-23T18:47:22.309Z,12.87
2018-02-23T18:49:50.590Z,11.73
2018-02-23T18:52:18.831Z,11.07
2018-02-23T18:54:46.348Z,8.40
2018-02-23T18:57:13.832Z,11.53
2018-02-23T18:59:41.310Z,12.50
2018-02-23T19:02:08.782Z,14.13
2018-02-23T19:04:37.031Z,14.53
2018-02-23T19:07:04.544Z,9.50
2018-02-23T19:09:32.042Z,10.20
2018-02-23T19:11:59.513Z,12.83
2018-02-23T19:14:26.995Z,11.03
2018-02-23T19:16:55.250Z,10.80
2018-02-23T19:19:22.713Z,12.03
2018-02-23T19:21:50.962Z,9.43
2018-02-23T19:24:18.438Z,12.90
2018-02-23T19:26:45.922Z,10.90
2018-02-23T19:29:14.153Z,12.30
2018-02-23T19:31:41.626Z,9.90
2018-02-23T19:34:09.095Z,13.60
2018-02-23T19:36:36.559Z,10.60
2018-02-23T19:39:04.833Z,11.90
2018-02-23T19:41:33.074Z,12.47
2018-02-23T19:44:00.541Z,11.37
2018-02-23T19:46:28.034Z,10.37
2018-02-23T19:48:56.267Z,8.53
2018-02-23T19:51:23.762Z,11.43
2018-02-23T19:53:52.007Z,13.17
2018-02-23T19:56:19.515Z,11.30
2018-02-23T19:58:46.994Z,10.80
2018-02-23T20:01:14.607Z,12.63
2018-02-23T20:03:42.862Z,10.70
2018-02-23T20:06:10.322Z,17.20
2018-02-23T20:08:37.810Z,10.07
2018-02-23T20:11:06.039Z,12.63
2018-02-23T20:13:33.511Z,9.90
2018-02-23T20:16:00.986Z,11.20
2018-02-23T20:18:29.224Z,10.53
2018-02-23T20:20:56.933Z,11.63
2018-02-23T20:23:24.462Z,13.03
2018-02-23T20:25:51.938Z,11.87
2018-02-23T20:28:20.187Z,13.00
2018-02-23T20:30:47.681Z,15.67
2018-02-23T20:33:15.142Z,10.70
2018-02-23T20:35:42.604Z,14.57
2018-02-23T20:38:10.122Z,12.30
2018-02-23T20:40:37.694Z,13.30
2018-02-23T20:43:05.152Z,12.90
2018-02-23T20:45:32.768Z,12.70
2018-02-23T20:48:00.122Z,16.07
2018-02-23T20:50:27.592Z,20.03
2018-02-23T20:52:55.071Z,12.10
2018-02-23T20:55:22.552Z,13.53
2018-02-23T20:57:50.063Z,15.40
2018-02-23T21:00:17.539Z,14.20
2018-02-23T21:02:45.003Z,14.73
2018-02-23T21:05:12.465Z,14.67
2018-02-23T21:07:39.947Z,13.53
2018-02-23T21:10:07.419Z,21.60
2018-02-23T21:12:34.906Z,16.47
2018-02-23T21:15:02.390Z,12.93
2018-02-23T21:17:30.634Z,15.17
2018-02-23T21:19:58.915Z,12.80
2018-02-23T21:22:27.208Z,16.03
2018-02-23T21:24:54.686Z,16.40
2018-02-23T21:27:22.952Z,13.17
2018-02-23T21:29:50.421Z,16.83
2018-02-23T21:32:18.662Z,20.57
2018-02-23T21:34:46.150Z,14.90
2018-02-23T21:37:14.406Z,18.33
2018-02-23T21:39:41.872Z,15.57
2018-02-23T21:42:10.118Z,18.13
2018-02-23T21:44:46.505Z,14.33
2018-02-23T21:47:14.045Z,17.10
2018-02-23T21:49:41.481Z,17.40
2018-02-23T21:52:08.991Z,15.20
2018-02-23T21:54:37.235Z,17.50
2018-02-23T21:57:04.708Z,21.53
2018-02-23T21:59:32.202Z,19.30
2018-02-23T22:01:59.727Z,18.20
2018-02-23T22:04:27.182Z,17.23
2018-02-23T22:06:54.668Z,23.33
2018-02-23T22:09:22.145Z,17.90
2018-02-23T22:11:49.611Z,17.40
2018-02-23T22:14:17.092Z,18.93
2018-02-23T22:16:44.656Z,19.63
2018-02-23T22:19:12.243Z,23.63
2018-02-23T22:21:40.490Z,20.70
2018-02-23T22:24:07.970Z,19.47
2018-02-23T22:26:36.202Z,17.70
2018-02-23T22:29:03.675Z,18.83
2018-02-23T22:31:31.151Z,23.03
2018-02-23T22:33:58.622Z,20.23
2018-02-23T22:36:26.900Z,20.17
2018-02-23T22:38:54.379Z,17.20
2018-02-23T22:41:21.865Z,19.67
2018-02-23T22:43:49.362Z,19.45
2018-02-23T22:46:17.607Z,19.70
2018-02-23T22:48:45.228Z,19.67
2018-02-23T22:51:12.718Z,19.13
2018-02-23T22:53:40.195Z,20.70
2018-02-23T22:56:07.684Z,18.70
2018-02-23T22:58:35.200Z,18.47
2018-02-23T23:01:02.673Z,20.60
2018-02-23T23:03:30.142Z,18.03
2018-02-23T23:05:58.391Z,22.10
2018-02-23T23:08:25.866Z,21.50
2018-02-23T23:10:53.338Z,22.20
2018-02-23T23:13:21.579Z,24.40
2018-02-23T23:15:49.059Z,20.62
2018-02-23T23:18:17.304Z,20.97
2018-02-23T23:20:44.838Z,24.70
2018-02-23T23:23:12.339Z,18.57
2018-02-23T23:25:39.834Z,20.25
2018-02-23T23:28:07.321Z,19.58
2018-02-23T23:30:34.795Z,21.55
2018-02-23T23:33:02.278Z,21.00
2018-02-23T23:35:30.527Z,18.50
2018-02-23T23:37:58.010Z,21.08
2018-02-23T23:40:26.251Z,23.47
2018-02-23T23:42:53.754Z,23.60
2018-02-23T23:45:22.747Z,19.20
2018-02-23T23:47:50.982Z,23.47
2018-02-23T23:50:18.478Z,18.67
2018-02-23T23:52:46.770Z,20.15
2018-02-23T23:55:15.014Z,22.80
2018-02-23T23:57:42.522Z,21.75
